createdAt,value
2016-05-16T00:00:10.959Z,0
2016-05-16T00:01:10.462Z,0
2016-05-16T00:02:10.527Z,0
2016-05-16T00:03:10.826Z,0
2016-05-16T00:04:10.454Z,0
2016-05-16T00:05:10.738Z,0
2016-05-16T00:06:10.007Z,0
2016-05-16T00:07:10.650Z,0
2016-05-16T00:08:10.700Z,0
2016-05-16T00:09:11.108Z,0
2016-05-16T00:10:10.345Z,0
2016-05-16T00:11:10.144Z,0
2016-05-16T00:12:10.225Z,0
2016-05-16T00:13:10.198Z,0
2016-05-16T00:14:10.528Z,0
2016-05-16T00:15:10.484Z,0
2016-05-16T00:16:10.049Z,0
2016-05-16T00:17:10.052Z,0
2016-05-16T00:18:09.991Z,0
2016-05-16T00:19:10.010Z,0
2016-05-16T00:20:10.310Z,0
2016-05-16T00:21:10.172Z,0
2016-05-16T00:22:09.877Z,0
2016-05-16T00:23:09.912Z,0
2016-05-16T00:24:09.883Z,0
2016-05-16T00:25:10.183Z,0
2016-05-16T00:26:10.091Z,0
2016-05-16T00:27:10.048Z,0
2016-05-16T00:28:10.222Z,0
2016-05-16T00:29:10.428Z,0
2016-05-16T00:30:10.415Z,0
2016-05-16T00:31:09.667Z,0
2016-05-16T00:32:11.280Z,0
2016-05-16T00:33:10.048Z,0
2016-05-16T00:34:09.910Z,0
2016-05-16T00:35:09.631Z,0
2016-05-16T00:36:09.540Z,0
2016-05-16T00:37:10.340Z,0
2016-05-16T00:38:10.170Z,0
2016-05-16T00:39:09.673Z,0
2016-05-16T00:40:10.114Z,0
2016-05-16T00:41:09.789Z,0
2016-05-16T00:42:09.291Z,0
2016-05-16T00:43:09.450Z,0
2016-05-16T00:44:10.171Z,0
2016-05-16T00:45:09.439Z,0
2016-05-16T00:46:09.333Z,0
2016-05-16T00:47:09.961Z,0
2016-05-16T00:48:09.791Z,0
2016-05-16T00:49:09.857Z,0
2016-05-16T00:50:10.578Z,0
2016-05-16T00:51:09.252Z,0
2016-05-16T00:52:09.380Z,0
2016-05-16T00:53:09.289Z,0
2016-05-16T00:54:09.011Z,0
2016-05-16T00:55:09.623Z,0
2016-05-16T00:56:09.094Z,0
2016-05-16T00:57:10.347Z,0
2016-05-16T00:58:09.194Z,0
2016-05-16T00:59:09.211Z,0
2016-05-16T01:00:09.042Z,0
2016-05-16T01:01:09.045Z,0
2016-05-16T01:02:09.313Z,0
2016-05-16T01:03:09.598Z,0
2016-05-16T01:04:09.115Z,0
2016-05-16T01:05:09.353Z,0
2016-05-16T01:06:09.136Z,0
2016-05-16T01:07:08.906Z,0
2016-05-16T01:08:08.970Z,0
2016-05-16T01:09:09.239Z,0
2016-05-16T01:10:09.117Z,0
2016-05-16T01:11:09.494Z,0
2016-05-16T01:12:08.778Z,0
2016-05-16T01:13:08.453Z,0
2016-05-16T01:14:09.315Z,0
2016-05-16T01:15:08.848Z,0
2016-05-16T01:16:08.554Z,0
2016-05-16T01:17:08.588Z,0
2016-05-16T01:18:08.481Z,0
2016-05-16T01:19:08.672Z,0
2016-05-16T01:20:08.862Z,0
2016-05-16T01:21:08.818Z,0
2016-05-16T01:22:08.757Z,0
2016-05-16T01:23:08.120Z,0
2016-05-16T01:24:08.295Z,0
2016-05-16T01:25:08.500Z,0
2016-05-16T01:26:08.534Z,0
2016-05-16T01:27:08.350Z,0
2016-05-16T01:28:08.304Z,0
2016-05-16T01:29:08.183Z,0
2016-05-16T01:30:08.607Z,0
2016-05-16T01:31:08.876Z,0
2016-05-16T01:32:08.707Z,0
2016-05-16T01:33:08.366Z,0
2016-05-16T01:34:07.946Z,0
2016-05-16T01:35:08.620Z,0
2016-05-16T01:36:07.858Z,0
2016-05-16T01:37:08.393Z,0
2016-05-16T01:38:08.957Z,0
2016-05-16T01:39:08.256Z,0
2016-05-16T01:40:07.916Z,0
2016-05-16T01:41:07.887Z,0
2016-05-16T01:42:07.499Z,0
2016-05-16T01:43:07.690Z,0
2016-05-16T01:44:08.067Z,0
2016-05-16T01:45:08.225Z,0
2016-05-16T01:46:07.761Z,0
2016-05-16T01:47:08.450Z,0
2016-05-16T01:48:07.733Z,0
2016-05-16T01:49:07.675Z,0
2016-05-16T01:50:07.989Z,0
2016-05-16T01:51:08.007Z,0
2016-05-16T01:52:08.410Z,0
2016-05-16T01:53:07.687Z,0
2016-05-16T01:54:07.714Z,0
2016-05-16T01:55:07.727Z,0
2016-05-16T01:56:08.031Z,0
2016-05-16T01:57:09.001Z,0
2016-05-16T01:58:07.988Z,0
2016-05-16T01:59:08.052Z,0
2016-05-16T02:00:07.522Z,0
2016-05-16T02:01:07.766Z,0
2016-05-16T02:02:07.931Z,0
2016-05-16T02:03:07.924Z,0
2016-05-16T02:04:07.947Z,0
2016-05-16T02:05:07.643Z,0
2016-05-16T02:06:07.570Z,0
2016-05-16T02:07:07.559Z,0
2016-05-16T02:08:07.907Z,0
2016-05-16T02:09:07.740Z,0
2016-05-16T02:10:07.589Z,0
2016-05-16T02:11:07.936Z,0
2016-05-16T02:12:07.971Z,0
2016-05-16T02:13:07.408Z,0
2016-05-16T02:14:07.630Z,0
2016-05-16T02:15:07.918Z,0
2016-05-16T02:16:07.153Z,0
2016-05-16T02:17:07.452Z,0
2016-05-16T02:18:07.787Z,0
2016-05-16T02:19:07.193Z,0
2016-05-16T02:20:07.523Z,0
2016-05-16T02:21:07.462Z,0
2016-05-16T02:22:07.685Z,0
2016-05-16T02:23:06.843Z,0
2016-05-16T02:24:07.127Z,0
2016-05-16T02:25:07.146Z,0
2016-05-16T02:26:07.195Z,0
2016-05-16T02:27:07.292Z,0
2016-05-16T02:28:06.997Z,0
2016-05-16T02:29:07.297Z,0
2016-05-16T02:30:07.378Z,0
2016-05-16T02:31:07.194Z,0
2016-05-16T02:32:07.274Z,0
2016-05-16T02:33:06.980Z,0
2016-05-16T02:34:06.732Z,0
2016-05-16T02:35:07.376Z,0
2016-05-16T02:36:07.035Z,0
2016-05-16T02:37:06.881Z,0
2016-05-16T02:38:07.212Z,0
2016-05-16T02:39:06.855Z,0
2016-05-16T02:40:06.718Z,0
2016-05-16T02:41:07.236Z,0
2016-05-16T02:42:06.801Z,0
2016-05-16T02:43:06.662Z,0
2016-05-16T02:44:06.587Z,0
2016-05-16T02:45:06.574Z,0
2016-05-16T02:46:06.593Z,0
2016-05-16T02:47:06.689Z,0
2016-05-16T02:48:06.380Z,0
2016-05-16T02:49:06.367Z,0
2016-05-16T02:50:07.979Z,0
2016-05-16T02:51:06.497Z,0
2016-05-16T02:52:06.234Z,0
2016-05-16T02:53:06.955Z,0
2016-05-16T02:54:06.162Z,0
2016-05-16T02:55:06.492Z,0
2016-05-16T02:56:06.964Z,0
2016-05-16T02:57:06.575Z,0
2016-05-16T02:58:06.234Z,0
2016-05-16T02:59:06.269Z,0
2016-05-16T03:00:06.475Z,0
2016-05-16T03:01:06.305Z,0
2016-05-16T03:02:07.761Z,0
2016-05-16T03:03:06.670Z,0
2016-05-16T03:04:06.891Z,0
2016-05-16T03:05:06.394Z,0
2016-05-16T03:06:06.021Z,0
2016-05-16T03:07:06.852Z,0
2016-05-16T03:08:06.199Z,0
2016-05-16T03:09:07.452Z,0
2016-05-16T03:10:05.876Z,0
2016-05-16T03:11:06.207Z,0
2016-05-16T03:12:06.569Z,0
2016-05-16T03:13:06.088Z,4
2016-05-16T03:14:06.137Z,4
2016-05-16T03:15:06.655Z,0
2016-05-16T03:16:06.142Z,0
2016-05-16T03:17:05.285Z,0
2016-05-16T03:18:05.741Z,4
2016-05-16T03:19:05.823Z,4
2016-05-16T03:20:06.387Z,4
2016-05-16T03:21:06.468Z,0
2016-05-16T03:22:05.706Z,4
2016-05-16T03:23:05.598Z,4
2016-05-16T03:24:06.351Z,4
2016-05-16T03:25:05.604Z,4
2016-05-16T03:26:06.263Z,8
2016-05-16T03:27:06.922Z,4
2016-05-16T03:28:05.956Z,8
2016-05-16T03:29:06.364Z,4
2016-05-16T03:30:05.430Z,8
2016-05-16T03:31:06.448Z,8
2016-05-16T03:32:05.858Z,8
2016-05-16T03:33:06.016Z,8
2016-05-16T03:34:06.753Z,12
2016-05-16T03:35:06.569Z,12
2016-05-16T03:36:06.118Z,16
2016-05-16T03:37:05.402Z,16
2016-05-16T03:38:05.577Z,16
2016-05-16T03:39:05.641Z,16
2016-05-16T03:40:05.379Z,20
2016-05-16T03:41:07.085Z,24
2016-05-16T03:42:05.087Z,24
2016-05-16T03:43:05.121Z,24
2016-05-16T03:44:05.811Z,28
2016-05-16T03:45:05.080Z,28
2016-05-16T03:46:05.660Z,32
2016-05-16T03:47:05.007Z,32
2016-05-16T03:48:05.057Z,32
2016-05-16T03:49:05.059Z,36
2016-05-16T03:50:05.406Z,40
2016-05-16T03:51:05.034Z,44
2016-05-16T03:52:05.301Z,44
2016-05-16T03:53:04.929Z,48
2016-05-16T03:54:04.917Z,48
2016-05-16T03:55:05.340Z,52
2016-05-16T03:56:05.000Z,56
2016-05-16T03:57:04.815Z,56
2016-05-16T03:58:05.037Z,60
2016-05-16T03:59:04.805Z,60
2016-05-16T04:00:04.776Z,64
2016-05-16T04:01:04.513Z,64
2016-05-16T04:02:04.984Z,68
2016-05-16T04:03:04.659Z,72
2016-05-16T04:04:04.881Z,76
2016-05-16T04:05:04.477Z,80
2016-05-16T04:06:04.574Z,84
2016-05-16T04:07:05.045Z,88
2016-05-16T04:08:04.751Z,88
2016-05-16T04:09:04.660Z,88
2016-05-16T04:10:04.694Z,92
2016-05-16T04:11:03.508Z,96
2016-05-16T04:12:04.824Z,96
2016-05-16T04:13:04.343Z,96
2016-05-16T04:14:04.579Z,100
2016-05-16T04:15:04.691Z,100
2016-05-16T04:16:04.569Z,100
2016-05-16T04:17:04.135Z,100
2016-05-16T04:18:04.621Z,104
2016-05-16T04:19:04.234Z,108
2016-05-16T04:20:04.517Z,112
2016-05-16T04:21:04.426Z,116
2016-05-16T04:22:04.492Z,120
2016-05-16T04:23:04.401Z,124
2016-05-16T04:24:04.106Z,128
2016-05-16T04:25:04.203Z,128
2016-05-16T04:26:04.159Z,136
2016-05-16T04:27:04.005Z,136
2016-05-16T04:28:04.179Z,148
2016-05-16T04:29:04.136Z,148
2016-05-16T04:30:03.920Z,156
2016-05-16T04:31:03.812Z,164
2016-05-16T04:32:04.190Z,164
2016-05-16T04:33:03.958Z,168
2016-05-16T04:34:03.789Z,172
2016-05-16T04:35:04.042Z,176
2016-05-16T04:36:03.498Z,176
2016-05-16T04:37:03.625Z,180
2016-05-16T04:38:03.972Z,188
2016-05-16T04:39:05.178Z,200
2016-05-16T04:40:03.712Z,204
2016-05-16T04:41:04.261Z,212
2016-05-16T04:42:03.608Z,216
2016-05-16T04:43:03.549Z,220
2016-05-16T04:44:04.316Z,220
2016-05-16T04:45:03.866Z,220
2016-05-16T04:46:03.290Z,224
2016-05-16T04:47:04.840Z,232
2016-05-16T04:48:03.890Z,240
2016-05-16T04:49:07.393Z,244
2016-05-16T04:50:04.535Z,244
2016-05-16T04:51:03.585Z,224
2016-05-16T04:52:03.384Z,228
2016-05-16T04:53:03.451Z,232
2016-05-16T04:54:03.828Z,236
2016-05-16T04:55:03.440Z,252
2016-05-16T04:56:03.645Z,248
2016-05-16T04:57:03.445Z,228
2016-05-16T04:58:02.885Z,220
2016-05-16T04:59:03.512Z,232
2016-05-16T05:00:03.219Z,232
2016-05-16T05:01:03.487Z,256
2016-05-16T05:02:03.959Z,268
2016-05-16T05:03:03.320Z,280
2016-05-16T05:04:03.355Z,280
2016-05-16T05:05:03.700Z,288
2016-05-16T05:06:03.578Z,300
2016-05-16T05:07:03.456Z,328
2016-05-16T05:08:03.225Z,348
2016-05-16T05:09:03.180Z,364
2016-05-16T05:10:03.292Z,396
2016-05-16T05:11:03.327Z,404
2016-05-16T05:12:03.329Z,420
2016-05-16T05:13:02.832Z,420
2016-05-16T05:14:03.147Z,424
2016-05-16T05:15:02.635Z,440
2016-05-16T05:16:02.903Z,504
2016-05-16T05:17:03.390Z,572
2016-05-16T05:18:02.751Z,592
2016-05-16T05:19:02.520Z,524
2016-05-16T05:20:03.616Z,568
2016-05-16T05:21:02.838Z,548
2016-05-16T05:22:02.715Z,472
2016-05-16T05:23:02.843Z,456
2016-05-16T05:24:02.392Z,448
2016-05-16T05:25:02.615Z,456
2016-05-16T05:26:02.835Z,496
2016-05-16T05:27:02.542Z,524
2016-05-16T05:28:02.247Z,508
2016-05-16T05:29:02.734Z,476
2016-05-16T05:30:02.409Z,456
2016-05-16T05:31:02.192Z,472
2016-05-16T05:32:03.023Z,504
2016-05-16T05:33:02.683Z,548
2016-05-16T05:34:02.482Z,628
2016-05-16T05:35:02.345Z,700
2016-05-16T05:36:02.769Z,696
2016-05-16T05:37:02.286Z,612
2016-05-16T05:38:02.712Z,556
2016-05-16T05:39:02.292Z,504
2016-05-16T05:40:02.358Z,488
2016-05-16T05:41:02.188Z,512
2016-05-16T05:42:02.363Z,548
2016-05-16T05:43:02.115Z,560
2016-05-16T05:44:02.369Z,576
2016-05-16T05:45:02.090Z,620
2016-05-16T05:46:01.905Z,636
2016-05-16T05:47:02.329Z,764
2016-05-16T05:48:02.224Z,656
2016-05-16T05:49:02.178Z,648
2016-05-16T05:50:02.307Z,624
2016-05-16T05:51:01.840Z,632
2016-05-16T05:52:01.577Z,656
2016-05-16T05:53:01.829Z,560
2016-05-16T05:54:02.177Z,508
2016-05-16T05:55:01.804Z,504
2016-05-16T05:56:02.057Z,404
2016-05-16T05:57:01.623Z,368
2016-05-16T05:58:02.312Z,368
2016-05-16T05:59:01.565Z,376
2016-05-16T06:00:02.067Z,368
2016-05-16T06:01:02.164Z,376
2016-05-16T06:02:05.089Z,392
2016-05-16T06:03:01.748Z,592
2016-05-16T06:04:01.578Z,528
2016-05-16T06:05:02.394Z,600
2016-05-16T06:06:02.631Z,616
2016-05-16T06:07:01.820Z,628
2016-05-16T06:08:01.433Z,652
2016-05-16T06:09:01.436Z,696
2016-05-16T06:10:01.266Z,736
2016-05-16T06:11:01.503Z,800
2016-05-16T06:12:01.568Z,868
2016-05-16T06:13:01.384Z,940
2016-05-16T06:14:01.636Z,952
2016-05-16T06:15:01.139Z,964
2016-05-16T06:16:01.094Z,992
2016-05-16T06:17:01.582Z,1048
2016-05-16T06:18:01.381Z,1056
2016-05-16T06:19:01.009Z,1072
2016-05-16T06:20:00.810Z,1124
2016-05-16T06:21:01.265Z,1152
2016-05-16T06:22:01.143Z,1144
2016-05-16T06:23:03.551Z,1132
2016-05-16T06:24:01.366Z,1212
2016-05-16T06:25:01.119Z,1324
2016-05-16T06:26:01.278Z,1388
2016-05-16T06:27:01.015Z,1280
2016-05-16T06:28:04.502Z,1412
2016-05-16T06:29:01.583Z,1192
2016-05-16T06:30:01.101Z,1208
2016-05-16T06:31:00.823Z,1256
2016-05-16T06:32:01.216Z,1272
2016-05-16T06:33:02.095Z,1260
2016-05-16T06:34:00.846Z,1256
2016-05-16T06:35:01.256Z,1228
2016-05-16T06:36:01.009Z,1220
2016-05-16T06:37:01.292Z,1244
2016-05-16T06:38:01.061Z,1244
2016-05-16T06:39:00.688Z,1244
2016-05-16T06:40:00.706Z,1244
2016-05-16T06:41:00.506Z,1228
2016-05-16T06:42:00.790Z,1216
2016-05-16T06:43:01.855Z,1216
2016-05-16T06:44:00.858Z,1212
2016-05-16T06:45:00.235Z,1236
2016-05-16T06:46:00.285Z,1280
2016-05-16T06:47:00.475Z,1300
2016-05-16T06:48:00.931Z,1316
2016-05-16T06:49:00.388Z,1316
2016-05-16T06:50:00.890Z,1352
2016-05-16T06:51:00.643Z,1368
2016-05-16T06:52:00.333Z,1400
2016-05-16T06:53:00.335Z,1428
2016-05-16T06:54:00.651Z,1476
2016-05-16T06:55:00.262Z,1560
2016-05-16T06:56:00.406Z,1648
2016-05-16T06:57:00.330Z,1600
2016-05-16T06:58:01.037Z,1628
2016-05-16T06:59:00.164Z,1656
2016-05-16T07:00:00.463Z,1592
2016-05-16T07:01:00.497Z,1580
2016-05-16T07:02:00.453Z,1548
2016-05-16T07:03:01.175Z,1564
2016-05-16T07:03:59.817Z,1540
2016-05-16T07:05:00.102Z,1436
2016-05-16T07:06:00.229Z,1288
2016-05-16T07:07:00.075Z,1172
2016-05-16T07:08:01.470Z,1300
2016-05-16T07:09:00.003Z,1148
2016-05-16T07:09:59.865Z,1064
2016-05-16T07:10:59.930Z,964
2016-05-16T07:12:00.433Z,920
2016-05-16T07:12:59.889Z,1008
2016-05-16T07:14:01.048Z,1080
2016-05-16T07:14:59.941Z,1232
2016-05-16T07:15:59.866Z,1300
2016-05-16T07:16:59.681Z,1236
2016-05-16T07:18:02.152Z,1020
2016-05-16T07:18:59.733Z,916
2016-05-16T07:19:59.720Z,892
2016-05-16T07:20:59.801Z,872
2016-05-16T07:22:00.147Z,848
2016-05-16T07:23:00.260Z,888
2016-05-16T07:23:59.622Z,920
2016-05-16T07:24:59.421Z,960
2016-05-16T07:25:59.862Z,1096
2016-05-16T07:26:59.692Z,1328
2016-05-16T07:28:01.054Z,1512
2016-05-16T07:28:59.495Z,1524
2016-05-16T07:29:59.965Z,1368
2016-05-16T07:30:59.876Z,1348
2016-05-16T07:31:59.799Z,1248
2016-05-16T07:33:01.239Z,1204
2016-05-16T07:33:59.258Z,1260
2016-05-16T07:34:59.448Z,1488
2016-05-16T07:36:00.076Z,1368
2016-05-16T07:36:59.234Z,1128
2016-05-16T07:38:00.253Z,1144
2016-05-16T07:38:59.365Z,1248
2016-05-16T07:39:59.165Z,1164
2016-05-16T07:40:59.028Z,936
2016-05-16T07:41:59.841Z,824
2016-05-16T07:42:59.283Z,860
2016-05-16T07:44:02.691Z,1016
2016-05-16T07:44:59.163Z,1012
2016-05-16T07:46:12.899Z,1092
2016-05-16T07:46:59.121Z,1176
2016-05-16T07:47:59.935Z,1432
2016-05-16T07:48:58.860Z,1544
2016-05-16T07:49:59.067Z,1436
2016-05-16T07:50:58.929Z,1312
2016-05-16T07:51:59.072Z,1208
2016-05-16T07:52:59.746Z,1176
2016-05-16T07:53:58.999Z,1012
2016-05-16T07:54:58.783Z,960
2016-05-16T07:55:59.004Z,1052
2016-05-16T07:56:58.648Z,1180
2016-05-16T07:57:58.759Z,1140
2016-05-16T07:58:58.888Z,1332
2016-05-16T07:59:59.094Z,1512
2016-05-16T08:00:58.768Z,1420
2016-05-16T08:01:58.865Z,1272
2016-05-16T08:02:59.117Z,1380
2016-05-16T08:03:58.635Z,1456
2016-05-16T08:04:59.153Z,1676
2016-05-16T08:05:59.937Z,1696
2016-05-16T08:06:58.768Z,1712
2016-05-16T08:07:59.881Z,1636
2016-05-16T08:08:58.398Z,1716
2016-05-16T08:09:58.526Z,1612
2016-05-16T08:10:58.326Z,1472
2016-05-16T08:12:00.188Z,1444
2016-05-16T08:13:00.284Z,1524
2016-05-16T08:13:59.240Z,1816
2016-05-16T08:14:58.728Z,1616
2016-05-16T08:15:58.543Z,1860
2016-05-16T08:16:58.545Z,1356
2016-05-16T08:18:00.205Z,1436
2016-05-16T08:18:58.894Z,1516
2016-05-16T08:19:58.147Z,1580
2016-05-16T08:21:04.385Z,1228
2016-05-16T08:21:58.215Z,1408
2016-05-16T08:23:15.952Z,1056
2016-05-16T08:23:58.674Z,884
2016-05-16T08:24:58.208Z,876
2016-05-16T08:25:59.148Z,1304
2016-05-16T08:26:59.479Z,1292
2016-05-16T08:28:11.731Z,1216
2016-05-16T08:28:58.281Z,1200
2016-05-16T08:29:58.314Z,1256
2016-05-16T08:30:58.614Z,1312
2016-05-16T08:31:58.586Z,1600
2016-05-16T08:32:59.745Z,1808
2016-05-16T08:33:57.732Z,2028
2016-05-16T08:35:10.297Z,1996
2016-05-16T08:35:58.956Z,1916
2016-05-16T08:37:00.365Z,1636
2016-05-16T08:37:59.508Z,1532
2016-05-16T08:39:11.620Z,1196
2016-05-16T08:39:57.576Z,1036
2016-05-16T08:40:57.938Z,1328
2016-05-16T08:41:57.941Z,1344
2016-05-16T08:42:59.209Z,1408
2016-05-16T08:43:57.680Z,1308
2016-05-16T08:44:59.340Z,1700
2016-05-16T08:45:57.904Z,1728
2016-05-16T08:46:58.391Z,1964
2016-05-16T08:47:57.692Z,2068
2016-05-16T08:48:57.819Z,1984
2016-05-16T08:50:11.197Z,2372
2016-05-16T08:50:57.965Z,2224
2016-05-16T08:51:57.405Z,2108
2016-05-16T08:52:58.908Z,2152
2016-05-16T08:53:57.957Z,1780
2016-05-16T08:54:57.335Z,1808
2016-05-16T08:56:01.025Z,1524
2016-05-16T08:56:57.263Z,1420
2016-05-16T08:57:57.437Z,1420
2016-05-16T08:58:57.190Z,1372
2016-05-16T08:59:57.832Z,1612
2016-05-16T09:00:57.679Z,1564
2016-05-16T09:01:57.744Z,1576
2016-05-16T09:02:57.137Z,1820
2016-05-16T09:03:57.219Z,2028
2016-05-16T09:04:57.503Z,2244
2016-05-16T09:05:57.365Z,2500
2016-05-16T09:06:58.836Z,2316
2016-05-16T09:07:58.948Z,2268
2016-05-16T09:08:56.920Z,2216
2016-05-16T09:09:57.203Z,2304
2016-05-16T09:10:57.222Z,2260
2016-05-16T09:12:00.225Z,2240
2016-05-16T09:12:57.462Z,2228
2016-05-16T09:13:57.136Z,2180
2016-05-16T09:14:57.217Z,1868
2016-05-16T09:15:56.875Z,1880
2016-05-16T09:16:56.769Z,1892
2016-05-16T09:17:58.068Z,1888
2016-05-16T09:18:57.071Z,1760
2016-05-16T09:19:57.122Z,1616
2016-05-16T09:20:56.717Z,1636
2016-05-16T09:21:56.939Z,1840
2016-05-16T09:22:56.926Z,1908
2016-05-16T09:23:56.913Z,1828
2016-05-16T09:24:57.025Z,1696
2016-05-16T09:25:57.106Z,1632
2016-05-16T09:26:56.733Z,1492
2016-05-16T09:27:56.502Z,1320
2016-05-16T09:28:56.583Z,1208
2016-05-16T09:29:56.554Z,1100
2016-05-16T09:30:56.932Z,1324
2016-05-16T09:31:57.200Z,1824
2016-05-16T09:32:56.374Z,2660
2016-05-16T09:33:56.518Z,2748
2016-05-16T09:34:56.974Z,2688
2016-05-16T09:35:56.915Z,2496
2016-05-16T09:36:56.526Z,2172
2016-05-16T09:37:56.717Z,1932
2016-05-16T09:38:56.312Z,1868
2016-05-16T09:39:57.190Z,1720
2016-05-16T09:40:56.428Z,1388
2016-05-16T09:41:56.789Z,1132
2016-05-16T09:42:56.620Z,1048
2016-05-16T09:43:56.545Z,1100
2016-05-16T09:44:56.251Z,1132
2016-05-16T09:45:56.363Z,1192
2016-05-16T09:46:56.537Z,1308
2016-05-16T09:47:56.336Z,1432
2016-05-16T09:48:56.386Z,1532
2016-05-16T09:49:56.389Z,1548
2016-05-16T09:50:56.407Z,1636
2016-05-16T09:51:56.255Z,1760
2016-05-16T09:52:56.350Z,1920
2016-05-16T09:53:56.025Z,2000
2016-05-16T09:54:56.074Z,1940
2016-05-16T09:55:56.171Z,1848
2016-05-16T09:56:55.877Z,1788
2016-05-16T09:57:55.958Z,2076
2016-05-16T09:58:56.258Z,1748
2016-05-16T09:59:55.760Z,1876
2016-05-16T10:00:56.575Z,1952
2016-05-16T10:01:57.406Z,2068
2016-05-16T10:02:56.580Z,1704
2016-05-16T10:03:55.957Z,1620
2016-05-16T10:04:55.601Z,1472
2016-05-16T10:05:55.573Z,1100
2016-05-16T10:06:56.170Z,1100
2016-05-16T10:07:56.704Z,1232
2016-05-16T10:08:55.596Z,1464
2016-05-16T10:09:56.115Z,1616
2016-05-16T10:10:55.867Z,1908
2016-05-16T10:11:59.167Z,2184
2016-05-16T10:12:59.045Z,2320
2016-05-16T10:13:56.345Z,2412
2016-05-16T10:15:11.348Z,2932
2016-05-16T10:15:55.194Z,3120
2016-05-16T10:16:55.525Z,2896
2016-05-16T10:17:55.933Z,2860
2016-05-16T10:18:55.264Z,2420
2016-05-16T10:19:55.657Z,2404
2016-05-16T10:20:55.442Z,2368
2016-05-16T10:21:55.631Z,2496
2016-05-16T10:22:55.338Z,2392
2016-05-16T10:23:55.403Z,2284
2016-05-16T10:24:55.624Z,2356
2016-05-16T10:25:55.330Z,2412
2016-05-16T10:26:55.301Z,2348
2016-05-16T10:27:54.913Z,2172
2016-05-16T10:28:55.338Z,2160
2016-05-16T10:29:55.153Z,2248
2016-05-16T10:30:55.266Z,2128
2016-05-16T10:31:55.018Z,2096
2016-05-16T10:32:55.333Z,2052
2016-05-16T10:33:55.429Z,1944
2016-05-16T10:34:54.932Z,1776
2016-05-16T10:35:54.981Z,1612
2016-05-16T10:36:55.251Z,1400
2016-05-16T10:37:55.143Z,1460
2016-05-16T10:38:54.973Z,1620
2016-05-16T10:39:54.962Z,2112
2016-05-16T10:40:54.949Z,2144
2016-05-16T10:41:55.185Z,1628
2016-05-16T10:42:55.688Z,1484
2016-05-16T10:43:55.222Z,1560
2016-05-16T10:44:54.865Z,1996
2016-05-16T10:45:54.602Z,2324
2016-05-16T10:46:54.761Z,2676
2016-05-16T10:47:54.655Z,3136
2016-05-16T10:48:54.954Z,3300
2016-05-16T10:49:54.941Z,3108
2016-05-16T10:50:55.256Z,3140
2016-05-16T10:51:54.680Z,3016
2016-05-16T10:52:54.575Z,2596
2016-05-16T10:53:54.452Z,2472
2016-05-16T10:54:54.924Z,2124
2016-05-16T10:55:54.598Z,1928
2016-05-16T10:56:54.491Z,1848
2016-05-16T10:57:54.503Z,1712
2016-05-16T10:58:54.365Z,1524
2016-05-16T10:59:54.555Z,1428
2016-05-16T11:00:54.496Z,1400
2016-05-16T11:01:54.920Z,1496
2016-05-16T11:02:54.678Z,1620
2016-05-16T11:03:54.417Z,1832
2016-05-16T11:04:54.592Z,1944
2016-05-16T11:05:54.596Z,2028
2016-05-16T11:06:54.663Z,2124
2016-05-16T11:07:54.860Z,2232
2016-05-16T11:08:54.556Z,2312
2016-05-16T11:09:54.502Z,2176
2016-05-16T11:10:54.511Z,2148
2016-05-16T11:11:54.488Z,1904
2016-05-16T11:12:54.806Z,1676
2016-05-16T11:13:54.794Z,1488
2016-05-16T11:14:54.457Z,1376
2016-05-16T11:15:54.476Z,1532
2016-05-16T11:16:54.373Z,1540
2016-05-16T11:17:54.313Z,1496
2016-05-16T11:18:54.723Z,1532
2016-05-16T11:19:54.446Z,1568
2016-05-16T11:20:54.308Z,1748
2016-05-16T11:21:54.593Z,2040
2016-05-16T11:22:54.409Z,2176
2016-05-16T11:23:54.224Z,2256
2016-05-16T11:24:54.556Z,2580
2016-05-16T11:25:54.449Z,2984
2016-05-16T11:26:54.264Z,3052
2016-05-16T11:27:54.298Z,3232
2016-05-16T11:28:53.989Z,2820
2016-05-16T11:29:54.116Z,3292
2016-05-16T11:30:54.432Z,4204
2016-05-16T11:31:54.184Z,4388
2016-05-16T11:32:54.328Z,4048
2016-05-16T11:33:53.815Z,3648
2016-05-16T11:34:53.864Z,3216
2016-05-16T11:35:54.383Z,2576
2016-05-16T11:36:57.526Z,2140
2016-05-16T11:37:53.747Z,1828
2016-05-16T11:38:53.860Z,1620
2016-05-16T11:39:53.691Z,1456
2016-05-16T11:40:53.849Z,1336
2016-05-16T11:41:53.665Z,1164
2016-05-16T11:42:53.792Z,1008
2016-05-16T11:43:54.185Z,884
2016-05-16T11:44:53.719Z,796
2016-05-16T11:45:53.581Z,740
2016-05-16T11:46:53.538Z,700
2016-05-16T11:47:53.681Z,688
2016-05-16T11:48:53.934Z,692
2016-05-16T11:49:53.858Z,712
2016-05-16T11:50:53.735Z,776
2016-05-16T11:51:53.504Z,856
2016-05-16T11:52:53.584Z,992
2016-05-16T11:53:53.556Z,1196
2016-05-16T11:54:54.371Z,1432
2016-05-16T11:55:53.828Z,1716
2016-05-16T11:56:53.470Z,2176
2016-05-16T11:57:53.520Z,2548
2016-05-16T11:58:53.522Z,2836
2016-05-16T11:59:53.385Z,3512
2016-05-16T12:00:53.669Z,4012
2016-05-16T12:01:53.875Z,5340
2016-05-16T12:02:53.378Z,6228
2016-05-16T12:03:53.380Z,5792
2016-05-16T12:04:53.414Z,15240
2016-05-16T12:05:53.307Z,3956
2016-05-16T12:06:53.685Z,3636
2016-05-16T12:07:53.266Z,3916
2016-05-16T12:08:53.081Z,4288
2016-05-16T12:09:53.208Z,5548
2016-05-16T12:10:53.164Z,3652
2016-05-16T12:11:53.699Z,3084
2016-05-16T12:12:53.388Z,3208
2016-05-16T12:13:53.469Z,3696
2016-05-16T12:14:53.488Z,4516
2016-05-16T12:15:53.085Z,5916
2016-05-16T12:16:52.962Z,5956
2016-05-16T12:17:53.387Z,5724
2016-05-16T12:18:52.982Z,4972
2016-05-16T12:19:53.267Z,5528
2016-05-16T12:20:52.800Z,5088
2016-05-16T12:21:52.818Z,5696
2016-05-16T12:22:52.916Z,6340
2016-05-16T12:23:52.809Z,5736
2016-05-16T12:24:53.171Z,6116
2016-05-16T12:25:53.126Z,5588
2016-05-16T12:26:53.411Z,6124
2016-05-16T12:27:53.179Z,6236
2016-05-16T12:28:52.478Z,5796
2016-05-16T12:29:52.575Z,5096
2016-05-16T12:30:52.531Z,4988
2016-05-16T12:31:53.018Z,5120
2016-05-16T12:32:52.677Z,6668
2016-05-16T12:33:52.555Z,7076
2016-05-16T12:34:52.541Z,5688
2016-05-16T12:35:53.138Z,5164
2016-05-16T12:36:52.874Z,7780
2016-05-16T12:37:52.831Z,5572
2016-05-16T12:38:52.334Z,5340
2016-05-16T12:39:52.508Z,5248
2016-05-16T12:40:52.511Z,6060
2016-05-16T12:41:52.622Z,4000
2016-05-16T12:42:52.360Z,3672
2016-05-16T12:43:52.612Z,4544
2016-05-16T12:44:52.380Z,5360
2016-05-16T12:45:52.243Z,6604
2016-05-16T12:46:52.277Z,6740
2016-05-16T12:47:52.404Z,5544
2016-05-16T12:48:52.188Z,3060
2016-05-16T12:49:52.410Z,2288
2016-05-16T12:50:52.287Z,1812
2016-05-16T12:51:52.213Z,1624
2016-05-16T12:52:52.151Z,1556
2016-05-16T12:53:52.234Z,1584
2016-05-16T12:54:52.440Z,1700
2016-05-16T12:55:52.301Z,1848
2016-05-16T12:56:51.991Z,1912
2016-05-16T12:57:54.947Z,1976
2016-05-16T12:58:52.137Z,2100
2016-05-16T12:59:52.109Z,2240
2016-05-16T13:00:52.299Z,2372
2016-05-16T13:01:52.473Z,2476
2016-05-16T13:02:52.133Z,2456
2016-05-16T13:03:51.635Z,2288
2016-05-16T13:04:51.934Z,2180
2016-05-16T13:05:52.344Z,2200
2016-05-16T13:06:52.034Z,2260
2016-05-16T13:07:51.974Z,2404
2016-05-16T13:08:51.836Z,2488
2016-05-16T13:09:51.933Z,2328
2016-05-16T13:10:51.794Z,2096
2016-05-16T13:11:51.907Z,2052
2016-05-16T13:12:52.096Z,2148
2016-05-16T13:13:52.021Z,2292
2016-05-16T13:14:51.696Z,2696
2016-05-16T13:15:51.746Z,4528
2016-05-16T13:16:51.702Z,2776
2016-05-16T13:17:51.844Z,2712
2016-05-16T13:18:51.644Z,2736
2016-05-16T13:19:51.912Z,2784
2016-05-16T13:20:51.337Z,2944
2016-05-16T13:21:51.621Z,3116
2016-05-16T13:22:51.249Z,3392
2016-05-16T13:23:51.564Z,15872
2016-05-16T13:24:51.598Z,4268
2016-05-16T13:25:51.648Z,4420
2016-05-16T13:26:51.525Z,5312
2016-05-16T13:27:51.450Z,25984
2016-05-16T13:28:51.436Z,20864
2016-05-16T13:29:51.393Z,62464
2016-05-16T13:30:51.692Z,27616
2016-05-16T13:31:51.382Z,17984
2016-05-16T13:32:51.041Z,33536
2016-05-16T13:33:51.122Z,12676
2016-05-16T13:34:51.250Z,11464
2016-05-16T13:35:51.502Z,10784
2016-05-16T13:36:51.286Z,18304
2016-05-16T13:37:51.477Z,16864
2016-05-16T13:38:50.995Z,8884
2016-05-16T13:39:51.560Z,24032
2016-05-16T13:40:50.875Z,5804
2016-05-16T13:41:50.878Z,6204
2016-05-16T13:42:51.459Z,3968
2016-05-16T13:43:51.196Z,3824
2016-05-16T13:44:50.964Z,3632
2016-05-16T13:45:51.155Z,3336
2016-05-16T13:46:51.126Z,3168